sensor_id;sensor_type;location;lat;lon;timestamp;P1;durP1;ratioP1;P2;durP2;ratioP2
48516;SDS011;34310;51.904;4.256;2023-06-10T00:02:25;21.38;;;19.02;;
48516;SDS011;34310;51.904;4.256;2023-06-10T00:04:53;21.58;;;19.27;;
48516;SDS011;34310;51.904;4.256;2023-06-10T00:07:21;19.75;;;17.75;;
48516;SDS011;34310;51.904;4.256;2023-06-10T00:09:49;19.73;;;17.65;;
48516;SDS011;34310;51.904;4.256;2023-06-10T00:12:16;20.55;;;18.35;;
48516;SDS011;34310;51.904;4.256;2023-06-10T00:14:44;19.92;;;17.88;;
48516;SDS011;34310;51.904;4.256;2023-06-10T00:17:11;18.77;;;16.77;;
48516;SDS011;34310;51.904;4.256;2023-06-10T00:19:38;18.77;;;16.88;;
48516;SDS011;34310;51.904;4.256;2023-06-10T00:22:07;19.95;;;17.85;;
48516;SDS011;34310;51.904;4.256;2023-06-10T00:24:37;19.08;;;17.13;;
48516;SDS011;34310;51.904;4.256;2023-06-10T00:27:05;18.50;;;16.60;;
48516;SDS011;34310;51.904;4.256;2023-06-10T00:29:33;18.08;;;16.23;;
48516;SDS011;34310;51.904;4.256;2023-06-10T00:32:01;17.70;;;15.90;;
48516;SDS011;34310;51.904;4.256;2023-06-10T00:34:29;17.77;;;15.88;;
48516;SDS011;34310;51.904;4.256;2023-06-10T00:36:56;16.67;;;14.98;;
48516;SDS011;34310;51.904;4.256;2023-06-10T00:39:24;17.27;;;15.48;;
48516;SDS011;34310;51.904;4.256;2023-06-10T00:41:51;16.63;;;14.93;;
48516;SDS011;34310;51.904;4.256;2023-06-10T00:44:18;16.63;;;14.93;;
48516;SDS011;34310;51.904;4.256;2023-06-10T00:46:46;16.35;;;14.63;;
48516;SDS011;34310;51.904;4.256;2023-06-10T00:49:13;15.63;;;14.02;;
48516;SDS011;34310;51.904;4.256;2023-06-10T00:51:41;15.35;;;13.85;;
48516;SDS011;34310;51.904;4.256;2023-06-10T00:54:08;15.38;;;13.77;;
48516;SDS011;34310;51.904;4.256;2023-06-10T00:56:39;15.15;;;13.18;;
48516;SDS011;34310;51.904;4.256;2023-06-10T00:59:09;14.23;;;12.82;;
48516;SDS011;34310;51.904;4.256;2023-06-10T01:01:36;15.13;;;13.52;;
48516;SDS011;34310;51.904;4.256;2023-06-10T01:04:05;14.73;;;13.23;;
48516;SDS011;34310;51.904;4.256;2023-06-10T01:06:40;14.60;;;13.10;;
48516;SDS011;34310;51.904;4.256;2023-06-10T01:12:11;13.65;;;12.30;;
48516;SDS011;34310;51.904;4.256;2023-06-10T01:14:48;14.10;;;12.70;;
48516;SDS011;34310;51.904;4.256;2023-06-10T01:17:17;14.35;;;12.85;;
48516;SDS011;34310;51.904;4.256;2023-06-10T01:19:52;13.07;;;11.77;;
48516;SDS011;34310;51.904;4.256;2023-06-10T01:22:25;14.52;;;12.13;;
48516;SDS011;34310;51.904;4.256;2023-06-10T01:24:58;13.45;;;12.05;;
48516;SDS011;34310;51.904;4.256;2023-06-10T01:27:29;13.57;;;12.23;;
48516;SDS011;34310;51.904;4.256;2023-06-10T01:30:03;13.32;;;12.02;;
48516;SDS011;34310;51.904;4.256;2023-06-10T01:32:39;14.50;;;12.68;;
48516;SDS011;34310;51.904;4.256;2023-06-10T01:35:11;12.65;;;11.45;;
48516;SDS011;34310;51.904;4.256;2023-06-10T01:37:39;13.30;;;12.00;;
48516;SDS011;34310;51.904;4.256;2023-06-10T01:40:12;13.05;;;11.75;;
48516;SDS011;34310;51.904;4.256;2023-06-10T01:42:41;13.20;;;11.90;;
48516;SDS011;34310;51.904;4.256;2023-06-10T01:45:09;12.40;;;11.18;;
48516;SDS011;34310;51.904;4.256;2023-06-10T01:47:36;12.32;;;11.13;;
48516;SDS011;34310;51.904;4.256;2023-06-10T01:50:04;12.50;;;11.25;;
48516;SDS011;34310;51.904;4.256;2023-06-10T01:52:32;13.18;;;11.88;;
48516;SDS011;34310;51.904;4.256;2023-06-10T01:54:59;12.02;;;10.82;;
48516;SDS011;34310;51.904;4.256;2023-06-10T01:57:27;12.55;;;11.35;;
48516;SDS011;34310;51.904;4.256;2023-06-10T01:59:54;11.30;;;10.20;;
48516;SDS011;34310;51.904;4.256;2023-06-10T02:02:21;11.73;;;10.43;;
48516;SDS011;34310;51.904;4.256;2023-06-10T02:04:49;11.48;;;10.38;;
48516;SDS011;34310;51.904;4.256;2023-06-10T02:07:16;11.68;;;10.57;;
48516;SDS011;34310;51.904;4.256;2023-06-10T02:09:44;12.45;;;11.27;;
48516;SDS011;34310;51.904;4.256;2023-06-10T02:12:12;11.57;;;10.40;;
48516;SDS011;34310;51.904;4.256;2023-06-10T02:14:43;11.60;;;10.40;;
48516;SDS011;34310;51.904;4.256;2023-06-10T02:17:10;11.57;;;10.20;;
48516;SDS011;34310;51.904;4.256;2023-06-10T02:19:39;10.80;;;9.73;;
48516;SDS011;34310;51.904;4.256;2023-06-10T02:22:09;11.25;;;10.15;;
48516;SDS011;34310;51.904;4.256;2023-06-10T02:24:36;11.40;;;10.10;;
48516;SDS011;34310;51.904;4.256;2023-06-10T02:27:04;11.02;;;9.80;;
48516;SDS011;34310;51.904;4.256;2023-06-10T02:29:34;11.60;;;10.38;;
48516;SDS011;34310;51.904;4.256;2023-06-10T02:32:02;10.43;;;9.43;;
48516;SDS011;34310;51.904;4.256;2023-06-10T02:34:30;10.98;;;9.95;;
48516;SDS011;34310;51.904;4.256;2023-06-10T02:36:57;10.30;;;9.27;;
48516;SDS011;34310;51.904;4.256;2023-06-10T02:39:24;10.35;;;9.35;;
48516;SDS011;34310;51.904;4.256;2023-06-10T02:41:52;10.25;;;9.30;;
48516;SDS011;34310;51.904;4.256;2023-06-10T02:44:19;10.32;;;9.32;;
48516;SDS011;34310;51.904;4.256;2023-06-10T02:46:46;11.35;;;10.15;;
48516;SDS011;34310;51.904;4.256;2023-06-10T02:49:14;10.20;;;9.20;;
48516;SDS011;34310;51.904;4.256;2023-06-10T02:51:41;9.52;;;8.63;;
48516;SDS011;34310;51.904;4.256;2023-06-10T02:54:08;10.00;;;9.00;;
48516;SDS011;34310;51.904;4.256;2023-06-10T02:56:36;10.13;;;9.13;;
48516;SDS011;34310;51.904;4.256;2023-06-10T02:59:03;9.88;;;8.88;;
48516;SDS011;34310;51.904;4.256;2023-06-10T03:01:33;10.13;;;8.32;;
48516;SDS011;34310;51.904;4.256;2023-06-10T03:04:06;9.30;;;8.40;;
48516;SDS011;34310;51.904;4.256;2023-06-10T03:06:35;8.95;;;8.10;;
48516;SDS011;34310;51.904;4.256;2023-06-10T03:09:02;9.18;;;8.27;;
48516;SDS011;34310;51.904;4.256;2023-06-10T03:11:30;9.15;;;8.20;;
48516;SDS011;34310;51.904;4.256;2023-06-10T03:13:57;9.30;;;8.40;;
48516;SDS011;34310;51.904;4.256;2023-06-10T03:16:25;9.85;;;8.85;;
48516;SDS011;34310;51.904;4.256;2023-06-10T03:18:53;9.15;;;8.25;;
48516;SDS011;34310;51.904;4.256;2023-06-10T03:21:21;9.20;;;8.30;;
48516;SDS011;34310;51.904;4.256;2023-06-10T03:23:48;9.32;;;8.43;;
48516;SDS011;34310;51.904;4.256;2023-06-10T03:26:16;9.20;;;8.30;;
48516;SDS011;34310;51.904;4.256;2023-06-10T03:28:43;8.57;;;7.78;;
48516;SDS011;34310;51.904;4.256;2023-06-10T03:31:10;8.30;;;7.50;;
48516;SDS011;34310;51.904;4.256;2023-06-10T03:33:38;8.13;;;7.32;;
48516;SDS011;34310;51.904;4.256;2023-06-10T03:36:05;8.55;;;7.65;;
48516;SDS011;34310;51.904;4.256;2023-06-10T03:38:33;8.70;;;7.90;;
48516;SDS011;34310;51.904;4.256;2023-06-10T03:41:00;9.57;;;8.57;;
48516;SDS011;34310;51.904;4.256;2023-06-10T03:43:27;7.68;;;6.97;;
48516;SDS011;34310;51.904;4.256;2023-06-10T03:45:55;7.28;;;6.57;;
48516;SDS011;34310;51.904;4.256;2023-06-10T03:48:22;8.25;;;7.45;;
48516;SDS011;34310;51.904;4.256;2023-06-10T03:50:49;8.77;;;7.95;;
48516;SDS011;34310;51.904;4.256;2023-06-10T03:53:18;8.02;;;7.25;;
48516;SDS011;34310;51.904;4.256;2023-06-10T03:55:45;8.05;;;7.25;;
48516;SDS011;34310;51.904;4.256;2023-06-10T03:58:13;8.73;;;7.25;;
48516;SDS011;34310;51.904;4.256;2023-06-10T04:00:41;8.50;;;7.70;;
48516;SDS011;34310;51.904;4.256;2023-06-10T04:03:08;7.93;;;6.63;;
48516;SDS011;34310;51.904;4.256;2023-06-10T04:05:41;7.93;;;7.13;;
48516;SDS011;34310;51.904;4.256;2023-06-10T04:08:08;12.75;;;6.78;;
48516;SDS011;34310;51.904;4.256;2023-06-10T04:10:36;12.85;;;6.90;;
48516;SDS011;34310;51.904;4.256;2023-06-10T04:13:03;10.00;;;7.00;;
48516;SDS011;34310;51.904;4.256;2023-06-10T04:15:31;11.20;;;7.20;;
48516;SDS011;34310;51.904;4.256;2023-06-10T04:18:01;12.85;;;6.72;;
48516;SDS011;34310;51.904;4.256;2023-06-10T04:20:28;8.52;;;6.38;;
48516;SDS011;34310;51.904;4.256;2023-06-10T04:22:56;8.20;;;6.40;;
48516;SDS011;34310;51.904;4.256;2023-06-10T04:25:23;8.35;;;6.00;;
48516;SDS011;34310;51.904;4.256;2023-06-10T04:27:51;10.10;;;6.30;;
48516;SDS011;34310;51.904;4.256;2023-06-10T04:30:18;6.97;;;6.28;;
48516;SDS011;34310;51.904;4.256;2023-06-10T04:32:47;8.00;;;6.00;;
48516;SDS011;34310;51.904;4.256;2023-06-10T04:35:15;6.60;;;5.80;;
48516;SDS011;34310;51.904;4.256;2023-06-10T04:37:42;9.32;;;6.28;;
48516;SDS011;34310;51.904;4.256;2023-06-10T04:40:10;6.70;;;6.05;;
48516;SDS011;34310;51.904;4.256;2023-06-10T04:42:37;8.35;;;6.47;;
48516;SDS011;34310;51.904;4.256;2023-06-10T04:45:05;7.38;;;6.07;;
48516;SDS011;34310;51.904;4.256;2023-06-10T04:47:34;6.28;;;5.68;;
48516;SDS011;34310;51.904;4.256;2023-06-10T04:50:01;8.63;;;6.43;;
48516;SDS011;34310;51.904;4.256;2023-06-10T04:52:30;7.65;;;6.50;;
48516;SDS011;34310;51.904;4.256;2023-06-10T04:54:58;7.80;;;5.35;;
48516;SDS011;34310;51.904;4.256;2023-06-10T04:57:25;9.43;;;5.90;;
48516;SDS011;34310;51.904;4.256;2023-06-10T04:59:52;8.80;;;5.80;;
48516;SDS011;34310;51.904;4.256;2023-06-10T05:02:20;7.28;;;5.70;;
48516;SDS011;34310;51.904;4.256;2023-06-10T05:04:47;8.95;;;6.07;;
48516;SDS011;34310;51.904;4.256;2023-06-10T05:07:15;7.95;;;5.97;;
48516;SDS011;34310;51.904;4.256;2023-06-10T05:09:42;6.45;;;5.75;;
48516;SDS011;34310;51.904;4.256;2023-06-10T05:12:09;6.22;;;5.63;;
48516;SDS011;34310;51.904;4.256;2023-06-10T05:14:37;6.15;;;5.55;;
48516;SDS011;34310;51.904;4.256;2023-06-10T05:17:04;7.65;;;5.88;;
48516;SDS011;34310;51.904;4.256;2023-06-10T05:19:32;7.28;;;5.40;;
48516;SDS011;34310;51.904;4.256;2023-06-10T05:22:01;6.82;;;5.35;;
48516;SDS011;34310;51.904;4.256;2023-06-10T05:24:29;7.00;;;5.65;;
48516;SDS011;34310;51.904;4.256;2023-06-10T05:26:56;7.07;;;5.63;;
48516;SDS011;34310;51.904;4.256;2023-06-10T05:29:24;6.05;;;5.45;;
48516;SDS011;34310;51.904;4.256;2023-06-10T05:31:51;6.07;;;5.47;;
48516;SDS011;34310;51.904;4.256;2023-06-10T05:34:20;6.45;;;5.28;;
48516;SDS011;34310;51.904;4.256;2023-06-10T05:36:47;5.57;;;5.03;;
48516;SDS011;34310;51.904;4.256;2023-06-10T05:39:14;5.95;;;5.45;;
48516;SDS011;34310;51.904;4.256;2023-06-10T05:41:42;5.63;;;5.00;;
48516;SDS011;34310;51.904;4.256;2023-06-10T05:44:09;5.70;;;5.20;;
48516;SDS011;34310;51.904;4.256;2023-06-10T05:46:39;5.88;;;5.25;;
48516;SDS011;34310;51.904;4.256;2023-06-10T05:49:06;7.93;;;5.10;;
48516;SDS011;34310;51.904;4.256;2023-06-10T05:51:34;6.18;;;5.03;;
48516;SDS011;34310;51.904;4.256;2023-06-10T05:54:03;9.90;;;5.40;;
48516;SDS011;34310;51.904;4.256;2023-06-10T05:56:31;8.30;;;5.22;;
48516;SDS011;34310;51.904;4.256;2023-06-10T05:58:58;7.88;;;5.07;;
48516;SDS011;34310;51.904;4.256;2023-06-10T06:01:25;10.82;;;5.13;;
48516;SDS011;34310;51.904;4.256;2023-06-10T06:03:53;8.65;;;5.32;;
48516;SDS011;34310;51.904;4.256;2023-06-10T06:06:20;8.50;;;5.00;;
48516;SDS011;34310;51.904;4.256;2023-06-10T06:08:48;9.07;;;5.28;;
48516;SDS011;34310;51.904;4.256;2023-06-10T06:11:15;8.23;;;4.82;;
48516;SDS011;34310;51.904;4.256;2023-06-10T06:13:43;8.73;;;5.05;;
48516;SDS011;34310;51.904;4.256;2023-06-10T06:16:10;11.20;;;4.88;;
48516;SDS011;34310;51.904;4.256;2023-06-10T06:18:38;6.10;;;4.70;;
48516;SDS011;34310;51.904;4.256;2023-06-10T06:21:05;6.13;;;5.00;;
48516;SDS011;34310;51.904;4.256;2023-06-10T06:23:32;6.40;;;4.90;;
48516;SDS011;34310;51.904;4.256;2023-06-10T06:25:59;8.30;;;5.22;;
48516;SDS011;34310;51.904;4.256;2023-06-10T06:28:28;8.65;;;4.95;;
48516;SDS011;34310;51.904;4.256;2023-06-10T06:30:56;8.35;;;4.57;;
48516;SDS011;34310;51.904;4.256;2023-06-10T06:33:23;8.20;;;5.20;;
48516;SDS011;34310;51.904;4.256;2023-06-10T06:35:52;6.13;;;4.60;;
48516;SDS011;34310;51.904;4.256;2023-06-10T06:38:19;7.75;;;4.40;;
48516;SDS011;34310;51.904;4.256;2023-06-10T06:40:47;6.82;;;4.47;;
48516;SDS011;34310;51.904;4.256;2023-06-10T06:43:14;6.80;;;4.55;;
48516;SDS011;34310;51.904;4.256;2023-06-10T06:45:42;5.85;;;4.60;;
48516;SDS011;34310;51.904;4.256;2023-06-10T06:48:10;5.50;;;4.50;;
48516;SDS011;34310;51.904;4.256;2023-06-10T06:50:38;7.63;;;4.43;;
48516;SDS011;34310;51.904;4.256;2023-06-10T06:53:07;5.38;;;4.22;;
48516;SDS011;34310;51.904;4.256;2023-06-10T06:55:35;5.22;;;4.43;;
48516;SDS011;34310;51.904;4.256;2023-06-10T06:58:02;6.22;;;4.47;;
48516;SDS011;34310;51.904;4.256;2023-06-10T07:00:31;6.25;;;4.43;;
48516;SDS011;34310;51.904;4.256;2023-06-10T07:02:58;6.35;;;4.20;;
48516;SDS011;34310;51.904;4.256;2023-06-10T07:05:26;4.93;;;4.38;;
48516;SDS011;34310;51.904;4.256;2023-06-10T07:07:54;4.47;;;4.07;;
48516;SDS011;34310;51.904;4.256;2023-06-10T07:10:23;6.53;;;4.68;;
48516;SDS011;34310;51.904;4.256;2023-06-10T07:12:51;4.68;;;4.28;;
48516;SDS011;34310;51.904;4.256;2023-06-10T07:15:18;4.70;;;4.28;;
48516;SDS011;34310;51.904;4.256;2023-06-10T07:17:46;5.18;;;4.43;;
48516;SDS011;34310;51.904;4.256;2023-06-10T07:20:13;6.57;;;4.50;;
48516;SDS011;34310;51.904;4.256;2023-06-10T07:22:41;4.68;;;4.28;;
48516;SDS011;34310;51.904;4.256;2023-06-10T07:25:09;4.70;;;4.30;;
48516;SDS011;34310;51.904;4.256;2023-06-10T07:27:37;4.47;;;4.07;;
48516;SDS011;34310;51.904;4.256;2023-06-10T07:30:05;4.20;;;3.80;;
48516;SDS011;34310;51.904;4.256;2023-06-10T07:32:34;4.20;;;3.80;;
48516;SDS011;34310;51.904;4.256;2023-06-10T07:35:02;4.63;;;4.20;;
48516;SDS011;34310;51.904;4.256;2023-06-10T07:37:29;4.90;;;4.30;;
48516;SDS011;34310;51.904;4.256;2023-06-10T07:39:57;4.88;;;4.40;;
48516;SDS011;34310;51.904;4.256;2023-06-10T07:42:26;4.90;;;3.88;;
48516;SDS011;34310;51.904;4.256;2023-06-10T07:44:53;4.88;;;4.38;;
48516;SDS011;34310;51.904;4.256;2023-06-10T07:47:20;5.07;;;4.13;;
48516;SDS011;34310;51.904;4.256;2023-06-10T07:49:48;4.70;;;4.20;;
48516;SDS011;34310;51.904;4.256;2023-06-10T07:52:15;4.38;;;3.97;;
48516;SDS011;34310;51.904;4.256;2023-06-10T07:54:43;4.63;;;4.20;;
48516;SDS011;34310;51.904;4.256;2023-06-10T07:57:10;4.78;;;4.00;;
48516;SDS011;34310;51.904;4.256;2023-06-10T07:59:37;4.88;;;4.30;;
48516;SDS011;34310;51.904;4.256;2023-06-10T08:02:05;5.03;;;4.47;;
48516;SDS011;34310;51.904;4.256;2023-06-10T08:04:32;4.93;;;4.45;;
48516;SDS011;34310;51.904;4.256;2023-06-10T08:07:01;5.10;;;4.35;;
48516;SDS011;34310;51.904;4.256;2023-06-10T08:09:29;5.60;;;4.30;;
48516;SDS011;34310;51.904;4.256;2023-06-10T08:11:56;6.65;;;4.43;;
48516;SDS011;34310;51.904;4.256;2023-06-10T08:14:24;4.43;;;4.03;;
48516;SDS011;34310;51.904;4.256;2023-06-10T08:16:51;5.30;;;4.18;;
48516;SDS011;34310;51.904;4.256;2023-06-10T08:19:19;4.70;;;4.20;;
48516;SDS011;34310;51.904;4.256;2023-06-10T08:21:46;4.70;;;4.15;;
48516;SDS011;34310;51.904;4.256;2023-06-10T08:24:13;5.10;;;4.50;;
48516;SDS011;34310;51.904;4.256;2023-06-10T08:26:44;6.10;;;4.80;;
48516;SDS011;34310;51.904;4.256;2023-06-10T08:29:11;5.47;;;4.38;;
48516;SDS011;34310;51.904;4.256;2023-06-10T08:31:43;5.28;;;4.65;;
48516;SDS011;34310;51.904;4.256;2023-06-10T08:34:10;4.95;;;4.43;;
48516;SDS011;34310;51.904;4.256;2023-06-10T08:36:38;5.03;;;4.53;;
48516;SDS011;34310;51.904;4.256;2023-06-10T08:39:05;5.35;;;4.60;;
48516;SDS011;34310;51.904;4.256;2023-06-10T08:41:34;5.40;;;4.90;;
48516;SDS011;34310;51.904;4.256;2023-06-10T08:44:12;5.30;;;4.80;;
48516;SDS011;34310;51.904;4.256;2023-06-10T08:46:48;5.35;;;4.85;;
48516;SDS011;34310;51.904;4.256;2023-06-10T08:49:17;5.80;;;5.20;;
48516;SDS011;34310;51.904;4.256;2023-06-10T08:51:48;5.30;;;4.80;;
48516;SDS011;34310;51.904;4.256;2023-06-10T08:54:18;6.00;;;5.32;;
48516;SDS011;34310;51.904;4.256;2023-06-10T08:56:49;5.50;;;5.00;;
48516;SDS011;34310;51.904;4.256;2023-06-10T08:59:17;6.70;;;5.80;;
48516;SDS011;34310;51.904;4.256;2023-06-10T09:01:46;6.13;;;5.53;;
48516;SDS011;34310;51.904;4.256;2023-06-10T09:04:14;6.35;;;5.75;;
48516;SDS011;34310;51.904;4.256;2023-06-10T09:06:44;5.85;;;5.25;;
48516;SDS011;34310;51.904;4.256;2023-06-10T09:09:14;6.05;;;5.45;;
48516;SDS011;34310;51.904;4.256;2023-06-10T09:11:42;6.55;;;5.88;;
48516;SDS011;34310;51.904;4.256;2023-06-10T09:14:10;7.05;;;6.20;;
48516;SDS011;34310;51.904;4.256;2023-06-10T09:16:39;6.40;;;5.80;;
48516;SDS011;34310;51.904;4.256;2023-06-10T09:19:06;7.45;;;6.25;;
48516;SDS011;34310;51.904;4.256;2023-06-10T09:21:34;6.65;;;6.05;;
48516;SDS011;34310;51.904;4.256;2023-06-10T09:24:05;6.88;;;6.03;;
48516;SDS011;34310;51.904;4.256;2023-06-10T09:26:32;7.15;;;6.45;;
48516;SDS011;34310;51.904;4.256;2023-06-10T09:29:03;7.78;;;6.38;;
48516;SDS011;34310;51.904;4.256;2023-06-10T09:31:34;7.20;;;6.50;;
48516;SDS011;34310;51.904;4.256;2023-06-10T09:34:12;7.93;;;6.72;;
48516;SDS011;34310;51.904;4.256;2023-06-10T09:36:41;7.65;;;6.85;;
48516;SDS011;34310;51.904;4.256;2023-06-10T09:39:15;8.18;;;7.20;;
48516;SDS011;34310;51.904;4.256;2023-06-10T09:41:45;8.18;;;7.38;;
48516;SDS011;34310;51.904;4.256;2023-06-10T09:44:13;8.32;;;7.25;;
48516;SDS011;34310;51.904;4.256;2023-06-10T09:46:46;8.90;;;7.78;;
48516;SDS011;34310;51.904;4.256;2023-06-10T09:49:15;8.82;;;7.90;;
48516;SDS011;34310;51.904;4.256;2023-06-10T09:51:49;8.88;;;7.90;;
48516;SDS011;34310;51.904;4.256;2023-06-10T09:54:18;9.40;;;8.40;;
48516;SDS011;34310;51.904;4.256;2023-06-10T09:56:47;9.00;;;7.68;;
48516;SDS011;34310;51.904;4.256;2023-06-10T09:59:28;9.18;;;8.20;;
48516;SDS011;34310;51.904;4.256;2023-06-10T10:01:58;9.73;;;8.48;;
48516;SDS011;34310;51.904;4.256;2023-06-10T10:04:27;8.75;;;7.82;;
48516;SDS011;34310;51.904;4.256;2023-06-10T10:06:55;9.70;;;8.70;;
48516;SDS011;34310;51.904;4.256;2023-06-10T10:09:22;10.82;;;8.85;;
48516;SDS011;34310;51.904;4.256;2023-06-10T10:11:49;10.93;;;9.23;;
48516;SDS011;34310;51.904;4.256;2023-06-10T10:14:20;11.15;;;9.80;;
48516;SDS011;34310;51.904;4.256;2023-06-10T10:16:48;12.27;;;10.98;;
48516;SDS011;34310;51.904;4.256;2023-06-10T10:19:19;12.05;;;10.43;;
48516;SDS011;34310;51.904;4.256;2023-06-10T10:24:23;14.52;;;11.60;;
48516;SDS011;34310;51.904;4.256;2023-06-10T10:26:54;13.27;;;11.88;;
48516;SDS011;34310;51.904;4.256;2023-06-10T10:29:30;13.73;;;11.90;;
48516;SDS011;34310;51.904;4.256;2023-06-10T10:32:05;13.48;;;11.95;;
48516;SDS011;34310;51.904;4.256;2023-06-10T10:37:06;15.45;;;12.50;;
48516;SDS011;34310;51.904;4.256;2023-06-10T10:39:34;14.35;;;12.70;;
48516;SDS011;34310;51.904;4.256;2023-06-10T10:42:04;15.43;;;13.63;;
48516;SDS011;34310;51.904;4.256;2023-06-10T10:44:40;17.13;;;14.93;;
48516;SDS011;34310;51.904;4.256;2023-06-10T10:47:08;16.42;;;14.07;;
48516;SDS011;34310;51.904;4.256;2023-06-10T10:49:37;18.90;;;16.13;;
48516;SDS011;34310;51.904;4.256;2023-06-10T10:52:09;17.48;;;15.27;;
48516;SDS011;34310;51.904;4.256;2023-06-10T10:54:41;17.50;;;15.60;;
48516;SDS011;34310;51.904;4.256;2023-06-10T10:57:13;16.83;;;15.05;;
48516;SDS011;34310;51.904;4.256;2023-06-10T11:02:15;18.63;;;16.63;;
48516;SDS011;34310;51.904;4.256;2023-06-10T11:05:07;17.98;;;15.77;;
48516;SDS011;34310;51.904;4.256;2023-06-10T11:07:36;18.52;;;16.40;;
48516;SDS011;34310;51.904;4.256;2023-06-10T11:10:10;18.67;;;16.23;;
48516;SDS011;34310;51.904;4.256;2023-06-10T11:15:12;19.83;;;17.02;;
48516;SDS011;34310;51.904;4.256;2023-06-10T11:31:58;21.42;;;18.00;;
48516;SDS011;34310;51.904;4.256;2023-06-10T11:34:22;21.75;;;18.75;;
48516;SDS011;34310;51.904;4.256;2023-06-10T11:36:51;21.65;;;18.35;;
48516;SDS011;34310;51.904;4.256;2023-06-10T11:39:20;20.65;;;17.90;;
48516;SDS011;34310;51.904;4.256;2023-06-10T11:41:49;21.48;;;18.85;;
48516;SDS011;34310;51.904;4.256;2023-06-10T11:44:18;22.45;;;19.50;;
48516;SDS011;34310;51.904;4.256;2023-06-10T11:46:47;21.60;;;18.95;;
48516;SDS011;34310;51.904;4.256;2023-06-10T11:49:16;20.55;;;18.33;;
48516;SDS011;34310;51.904;4.256;2023-06-10T11:51:43;22.83;;;19.02;;
48516;SDS011;34310;51.904;4.256;2023-06-10T11:54:16;20.98;;;18.65;;
48516;SDS011;34310;51.904;4.256;2023-06-10T11:56:44;22.58;;;19.35;;
48516;SDS011;34310;51.904;4.256;2023-06-10T11:59:12;22.02;;;19.17;;
48516;SDS011;34310;51.904;4.256;2023-06-10T12:01:43;22.67;;;19.42;;
48516;SDS011;34310;51.904;4.256;2023-06-10T12:04:12;21.60;;;19.00;;
48516;SDS011;34310;51.904;4.256;2023-06-10T12:06:46;23.35;;;20.23;;
48516;SDS011;34310;51.904;4.256;2023-06-10T12:09:24;22.80;;;20.27;;
48516;SDS011;34310;51.904;4.256;2023-06-10T12:11:57;23.95;;;21.40;;
48516;SDS011;34310;51.904;4.256;2023-06-10T12:19:57;24.45;;;21.77;;
48516;SDS011;34310;51.904;4.256;2023-06-10T12:22:26;23.08;;;20.58;;
48516;SDS011;34310;51.904;4.256;2023-06-10T12:25:02;25.35;;;21.80;;
48516;SDS011;34310;51.904;4.256;2023-06-10T12:27:33;26.25;;;23.38;;
48516;SDS011;34310;51.904;4.256;2023-06-10T12:30:04;25.77;;;22.20;;
48516;SDS011;34310;51.904;4.256;2023-06-10T12:35:11;25.30;;;21.92;;
48516;SDS011;34310;51.904;4.256;2023-06-10T12:37:40;26.23;;;22.92;;
48516;SDS011;34310;51.904;4.256;2023-06-10T12:40:09;26.20;;;23.13;;
48516;SDS011;34310;51.904;4.256;2023-06-10T12:42:37;26.55;;;23.15;;
48516;SDS011;34310;51.904;4.256;2023-06-10T12:45:06;26.92;;;23.23;;
48516;SDS011;34310;51.904;4.256;2023-06-10T12:47:36;26.35;;;22.95;;
48516;SDS011;34310;51.904;4.256;2023-06-10T12:50:08;25.85;;;22.63;;
48516;SDS011;34310;51.904;4.256;2023-06-10T12:52:36;26.48;;;23.38;;
48516;SDS011;34310;51.904;4.256;2023-06-10T12:55:03;27.08;;;24.02;;
48516;SDS011;34310;51.904;4.256;2023-06-10T12:57:31;27.52;;;24.50;;
48516;SDS011;34310;51.904;4.256;2023-06-10T12:59:58;27.80;;;24.30;;
48516;SDS011;34310;51.904;4.256;2023-06-10T13:02:31;26.77;;;23.90;;
48516;SDS011;34310;51.904;4.256;2023-06-10T13:04:58;25.92;;;23.13;;
48516;SDS011;34310;51.904;4.256;2023-06-10T13:07:26;25.80;;;22.65;;
48516;SDS011;34310;51.904;4.256;2023-06-10T13:09:53;25.90;;;23.10;;
48516;SDS011;34310;51.904;4.256;2023-06-10T13:12:21;26.27;;;23.17;;
48516;SDS011;34310;51.904;4.256;2023-06-10T13:15:03;26.50;;;23.27;;
48516;SDS011;34310;51.904;4.256;2023-06-10T13:17:31;25.00;;;22.10;;
48516;SDS011;34310;51.904;4.256;2023-06-10T13:20:00;25.75;;;22.95;;
48516;SDS011;34310;51.904;4.256;2023-06-10T13:22:32;25.73;;;22.83;;
48516;SDS011;34310;51.904;4.256;2023-06-10T13:25:02;26.40;;;23.50;;
48516;SDS011;34310;51.904;4.256;2023-06-10T13:27:30;26.92;;;22.92;;
48516;SDS011;34310;51.904;4.256;2023-06-10T13:29:57;26.05;;;22.55;;
48516;SDS011;34310;51.904;4.256;2023-06-10T13:32:24;25.65;;;22.88;;
48516;SDS011;34310;51.904;4.256;2023-06-10T13:34:52;25.65;;;22.95;;
48516;SDS011;34310;51.904;4.256;2023-06-10T13:37:20;25.30;;;22.17;;
48516;SDS011;34310;51.904;4.256;2023-06-10T13:39:47;24.75;;;21.70;;
48516;SDS011;34310;51.904;4.256;2023-06-10T13:42:20;25.98;;;22.90;;
48516;SDS011;34310;51.904;4.256;2023-06-10T13:44:47;25.48;;;22.63;;
48516;SDS011;34310;51.904;4.256;2023-06-10T13:47:15;25.80;;;21.48;;
48516;SDS011;34310;51.904;4.256;2023-06-10T13:49:42;24.70;;;22.00;;
48516;SDS011;34310;51.904;4.256;2023-06-10T13:52:09;25.10;;;22.40;;
48516;SDS011;34310;51.904;4.256;2023-06-10T13:54:37;24.85;;;22.17;;
48516;SDS011;34310;51.904;4.256;2023-06-10T13:57:04;24.80;;;22.05;;
48516;SDS011;34310;51.904;4.256;2023-06-10T13:59:32;23.67;;;21.17;;
48516;SDS011;34310;51.904;4.256;2023-06-10T14:01:59;23.83;;;21.23;;
48516;SDS011;34310;51.904;4.256;2023-06-10T14:04:27;23.45;;;20.95;;
48516;SDS011;34310;51.904;4.256;2023-06-10T14:06:56;23.95;;;21.38;;
48516;SDS011;34310;51.904;4.256;2023-06-10T14:09:23;23.35;;;20.77;;
48516;SDS011;34310;51.904;4.256;2023-06-10T14:11:51;23.48;;;20.90;;
48516;SDS011;34310;51.904;4.256;2023-06-10T14:14:18;23.33;;;20.83;;
48516;SDS011;34310;51.904;4.256;2023-06-10T14:16:45;24.45;;;21.52;;
48516;SDS011;34310;51.904;4.256;2023-06-10T14:19:13;24.15;;;21.58;;
48516;SDS011;34310;51.904;4.256;2023-06-10T14:21:40;22.88;;;20.42;;
48516;SDS011;34310;51.904;4.256;2023-06-10T14:24:08;22.48;;;19.92;;
48516;SDS011;34310;51.904;4.256;2023-06-10T14:26:36;22.02;;;19.58;;
48516;SDS011;34310;51.904;4.256;2023-06-10T14:29:03;22.98;;;20.55;;
48516;SDS011;34310;51.904;4.256;2023-06-10T14:31:30;21.98;;;19.33;;
48516;SDS011;34310;51.904;4.256;2023-06-10T14:33:58;22.15;;;19.75;;
48516;SDS011;34310;51.904;4.256;2023-06-10T14:36:25;21.85;;;19.50;;
48516;SDS011;34310;51.904;4.256;2023-06-10T14:38:53;23.05;;;19.92;;
48516;SDS011;34310;51.904;4.256;2023-06-10T14:41:20;21.92;;;19.60;;
48516;SDS011;34310;51.904;4.256;2023-06-10T14:43:48;22.05;;;19.75;;
48516;SDS011;34310;51.904;4.256;2023-06-10T14:46:16;22.80;;;19.77;;
48516;SDS011;34310;51.904;4.256;2023-06-10T14:48:43;21.73;;;19.42;;
48516;SDS011;34310;51.904;4.256;2023-06-10T14:51:10;22.38;;;19.95;;
48516;SDS011;34310;51.904;4.256;2023-06-10T14:53:38;21.85;;;19.55;;
48516;SDS011;34310;51.904;4.256;2023-06-10T14:56:05;21.40;;;19.10;;
48516;SDS011;34310;51.904;4.256;2023-06-10T14:58:33;21.45;;;19.15;;
48516;SDS011;34310;51.904;4.256;2023-06-10T15:01:00;20.85;;;18.67;;
48516;SDS011;34310;51.904;4.256;2023-06-10T15:03:27;21.55;;;19.20;;
48516;SDS011;34310;51.904;4.256;2023-06-10T15:05:55;21.02;;;18.73;;
48516;SDS011;34310;51.904;4.256;2023-06-10T15:08:22;20.60;;;18.02;;
48516;SDS011;34310;51.904;4.256;2023-06-10T15:10:49;21.55;;;19.25;;
48516;SDS011;34310;51.904;4.256;2023-06-10T15:13:17;20.15;;;17.95;;
48516;SDS011;34310;51.904;4.256;2023-06-10T15:15:44;20.63;;;18.42;;
48516;SDS011;34310;51.904;4.256;2023-06-10T15:18:12;20.38;;;18.27;;